Time;durP1;ratioP1;P1;durP2;ratioP2;P2;SDS_P1;SDS_P2;PMS_P1;PMS_P2;Temp;Humidity;BMP_temperature;BMP_pressure;BME280_temperature;BME280_humidity;BME280_pressure;Samples;Min_cycle;Max_cycle;Signal;HPM_P1;HPM_P2
2023/01/26 00:02:34;;;;;;;;;;;;;;;17.92;33.34;95975.44;10426002;28;3031;-52
2023/01/26 00:07:34;;;;;;;;;;;;;;;17.89;33.30;95974.13;10420960;28;3039;-48
2023/01/26 00:12:34;;;;;;;;;;;;;;;17.85;33.40;95970.41;10425435;28;3220;-49
2023/01/26 00:17:37;;;;;;;;;;;;;;;17.83;33.37;95958.59;10421551;28;3053;-52
2023/01/26 00:22:37;;;;;;;;;;;;;;;17.81;33.33;95950.19;10417522;28;2975;-48
2023/01/26 00:27:37;;;;;;;;;;;;;;;17.78;33.38;95953.31;10417847;28;2994;-46
2023/01/26 00:32:37;;;;;;;;;;;;;;;17.77;33.31;95949.91;10423057;28;3120;-52
2023/01/26 00:37:40;;;;;;;;;;;;;;;17.75;33.29;95949.38;10418895;28;2903;-49
2023/01/26 00:42:40;;;;;;;;;;;;;;;17.74;33.20;95941.75;10418532;28;3009;-51
2023/01/26 00:47:40;;;;;;;;;;;;;;;17.71;33.20;95944.88;10423302;28;3176;-48
2023/01/26 00:52:40;;;;;;;;;;;;;;;17.70;33.05;95936.19;10417069;28;3157;-49
2023/01/26 00:57:41;;;;;;;;;;;;;;;17.68;33.22;95933.03;10424249;28;2955;-47
2023/01/26 01:02:41;;;;;;;;;;;;;;;17.65;33.13;95928.31;10422154;28;2982;-51
2023/01/26 01:07:42;;;;;;;;;;;;;;;17.63;33.07;95925.16;10429173;28;2971;-46
2023/01/26 01:12:42;;;;;;;;;;;;;;;17.60;33.13;95924.84;10416672;28;3130;-50
2023/01/26 01:17:42;;;;;;;;;;;;;;;17.59;33.13;95923.28;10418195;28;2990;-47
2023/01/26 01:22:42;;;;;;;;;;;;;;;17.59;33.05;95926.69;10415739;28;3094;-50
2023/01/26 01:27:43;;;;;;;;;;;;;;;17.59;33.09;95925.91;10422024;28;3166;-49
2023/01/26 01:32:43;;;;;;;;;;;;;;;17.57;32.96;95918.28;10417269;28;2962;-49
2023/01/26 01:37:43;;;;;;;;;;;;;;;17.56;33.00;95921.94;10416169;28;2995;-47
2023/01/26 01:42:47;;;;;;;;;;;;;;;17.57;32.90;95920.91;10422701;28;2989;-49
2023/01/26 01:47:47;;;;;;;;;;;;;;;17.57;32.83;95923.53;10427065;28;3082;-50
2023/01/26 01:52:48;;;;;;;;;;;;;;;17.58;32.91;95922.47;10427652;28;3084;-48
2023/01/26 01:57:51;;;;;;;;;;;;;;;17.59;32.79;95921.44;10424856;28;3093;-51
2023/01/26 02:03:13;;;;;;;;;;;;;;;17.61;32.79;95921.19;10427915;28;3066;-48
2023/01/26 02:08:13;;;;;;;;;;;;;;;17.63;32.80;95914.66;10436119;28;3130;-49
2023/01/26 02:13:14;;;;;;;;;;;;;;;17.62;32.69;95913.06;10407642;28;3070;-46
2023/01/26 02:18:15;;;;;;;;;;;;;;;17.65;32.77;95906.53;10400413;28;3033;-46
2023/01/26 02:23:15;;;;;;;;;;;;;;;17.66;32.65;95898.41;10431847;28;3025;-48
2023/01/26 02:28:15;;;;;;;;;;;;;;;17.68;32.63;95891.09;10427634;28;3065;-48
2023/01/26 02:33:16;;;;;;;;;;;;;;;17.65;32.68;95878.50;10409342;28;3347;-48
2023/01/26 02:38:17;;;;;;;;;;;;;;;17.68;32.50;95875.38;10419153;28;3148;-48
2023/01/26 02:43:17;;;;;;;;;;;;;;;17.69;32.53;95866.47;10425754;28;3156;-44
2023/01/26 02:53:36;;;;;;;;;;;;;;;17.72;32.48;95852.09;10431217;28;3147;-48
2023/01/26 02:58:36;;;;;;;;;;;;;;;17.70;32.54;95857.56;10425882;28;3018;-47
2023/01/26 03:03:43;;;;;;;;;;;;;;;17.72;32.40;95839.75;10423137;28;3010;-46
2023/01/26 03:08:44;;;;;;;;;;;;;;;17.74;32.36;95842.91;10424243;28;3155;-51
2023/01/26 03:14:04;;;;;;;;;;;;;;;17.70;32.45;95833.97;10411826;28;3025;-47
2023/01/26 03:29:42;;;;;;;;;;;;;;;17.74;32.41;95827.16;10417078;28;3124;-47
2023/01/26 03:34:43;;;;;;;;;;;;;;;17.74;32.25;95821.91;10430689;28;3033;-52
2023/01/26 04:00:58;;;;;;;;;;;;;;;17.78;32.20;95823.00;10417571;28;3053;-50
2023/01/26 04:11:17;;;;;;;;;;;;;;;17.77;31.97;95818.81;10419630;28;2942;-50
2023/01/26 04:21:36;;;;;;;;;;;;;;;17.79;31.95;95808.06;10421159;28;2966;-46
2023/01/26 04:26:36;;;;;;;;;;;;;;;17.79;32.05;95805.44;10418822;28;3034;-51
2023/01/26 04:31:37;;;;;;;;;;;;;;;17.79;31.94;95801.00;10414184;28;2998;-48
2023/01/26 04:36:37;;;;;;;;;;;;;;;17.79;31.97;95805.44;10423744;28;3159;-46
2023/01/26 04:41:37;;;;;;;;;;;;;;;17.80;31.97;95801.78;10424452;28;3045;-48
2023/01/26 04:46:38;;;;;;;;;;;;;;;17.80;31.97;95799.94;10420059;28;3048;-49
2023/01/26 04:51:38;;;;;;;;;;;;;;;17.79;31.84;95790.50;10419430;28;2978;-51
2023/01/26 04:56:38;;;;;;;;;;;;;;;17.79;31.92;95787.88;10420388;28;3143;-47
2023/01/26 05:01:39;;;;;;;;;;;;;;;17.79;31.92;95802.81;10408934;28;2959;-48
2023/01/26 05:06:40;;;;;;;;;;;;;;;17.82;31.83;95797.06;10418647;28;3042;-49
2023/01/26 05:11:41;;;;;;;;;;;;;;;17.81;31.81;95801.53;10430676;28;3032;-47
2023/01/26 05:16:41;;;;;;;;;;;;;;;17.86;31.77;95803.38;10417519;28;3063;-49
2023/01/26 05:21:41;;;;;;;;;;;;;;;17.92;31.67;95806.81;10425546;28;3074;-47
2023/01/26 05:26:41;;;;;;;;;;;;;;;17.94;31.76;95795.03;10421360;28;2975;-49
2023/01/26 05:31:41;;;;;;;;;;;;;;;17.99;31.64;95799.53;10422163;28;3026;-48
2023/01/26 05:36:42;;;;;;;;;;;;;;;18.05;31.56;95798.50;10421812;28;3002;-46
2023/01/26 05:41:42;;;;;;;;;;;;;;;18.12;31.44;95796.41;10416396;28;2970;-50
2023/01/26 05:46:42;;;;;;;;;;;;;;;18.15;31.39;95790.66;10416048;28;2958;-47
2023/01/26 05:51:42;;;;;;;;;;;;;;;18.20;31.32;95798.53;10419823;28;3073;-47
2023/01/26 05:56:43;;;;;;;;;;;;;;;18.24;31.32;95800.41;10411790;28;3018;-46
2023/01/26 06:01:43;;;;;;;;;;;;;;;18.26;31.30;95798.31;10407998;28;3394;-47
2023/01/26 06:06:43;;;;;;;;;;;;;;;18.30;31.10;95802.00;10424042;28;3038;-48
2023/01/26 06:11:43;;;;;;;;;;;;;;;18.35;31.13;95811.72;10417213;28;3041;-50
2023/01/26 06:16:44;;;;;;;;;;;;;;;18.36;31.12;95805.44;10416318;28;3050;-49
2023/01/26 06:21:44;;;;;;;;;;;;;;;18.40;31.03;95806.50;10414770;28;2915;-48
2023/01/26 06:26:46;;;;;;;;;;;;;;;18.44;30.99;95797.09;10414829;28;3034;-48
2023/01/26 06:31:46;;;;;;;;;;;;;;;18.46;31.06;95801.03;10420546;28;3135;-51
2023/01/26 06:36:46;;;;;;;;;;;;;;;18.48;30.93;95808.66;10422937;28;2987;-48
2023/01/26 06:41:46;;;;;;;;;;;;;;;18.52;30.83;95812.34;10433732;28;3264;-47
2023/01/26 06:46:47;;;;;;;;;;;;;;;18.57;30.81;95804.47;10426940;28;2997;-46
2023/01/26 06:52:05;;;;;;;;;;;;;;;18.60;31.01;95799.50;10422387;28;2997;-50
2023/01/26 06:57:07;;;;;;;;;;;;;;;18.64;30.90;95790.06;10428451;28;3007;-47
2023/01/26 07:02:15;;;;;;;;;;;;;;;18.68;30.92;95788.47;10421061;28;2976;-46
2023/01/26 07:07:15;;;;;;;;;;;;;;;18.73;30.85;95786.91;10419371;28;3284;-50
2023/01/26 07:12:15;;;;;;;;;;;;;;;18.74;30.93;95789.28;10424358;28;3365;-49
2023/01/26 07:17:16;;;;;;;;;;;;;;;18.75;30.89;95796.13;10422701;28;2954;-48
2023/01/26 07:22:16;;;;;;;;;;;;;;;18.79;30.86;95791.13;10425043;28;3087;-48
2023/01/26 07:27:16;;;;;;;;;;;;;;;18.80;30.81;95790.84;10424108;28;3029;-47
2023/01/26 07:32:17;;;;;;;;;;;;;;;18.84;30.75;95788.47;10432607;28;3092;-50
2023/01/26 07:37:17;;;;;;;;;;;;;;;18.86;30.56;95784.56;10427343;28;3064;-46
2023/01/26 07:42:17;;;;;;;;;;;;;;;18.88;30.54;95790.34;10416220;28;2967;-48
2023/01/26 07:47:18;;;;;;;;;;;;;;;18.88;30.62;95782.44;10416947;28;3028;-52
2023/01/26 07:52:19;;;;;;;;;;;;;;;18.93;30.52;95784.31;10415273;28;3032;-50
2023/01/26 07:57:19;;;;;;;;;;;;;;;18.95;30.51;95779.56;10420509;28;3036;-51
2023/01/26 08:02:19;;;;;;;;;;;;;;;18.91;30.59;95781.16;10422498;28;3046;-46
2023/01/26 08:07:19;;;;;;;;;;;;;;;18.93;30.58;95777.22;10417645;28;2966;-46
2023/01/26 08:12:20;;;;;;;;;;;;;;;18.94;30.63;95768.28;10417094;28;3078;-47
2023/01/26 08:17:20;;;;;;;;;;;;;;;18.94;30.71;95770.13;10426047;28;3041;-51
2023/01/26 08:22:21;;;;;;;;;;;;;;;18.97;30.64;95767.75;10411865;28;3095;-48
2023/01/26 08:27:22;;;;;;;;;;;;;;;19.02;30.76;95759.88;10413039;28;3025;-53
2023/01/26 08:32:22;;;;;;;;;;;;;;;19.03;30.76;95760.66;10414217;28;2983;-50
2023/01/26 08:37:22;;;;;;;;;;;;;;;19.06;30.80;95760.91;10425932;28;3063;-46
2023/01/26 08:42:24;;;;;;;;;;;;;;;19.08;30.79;95761.44;10419567;28;3107;-48
2023/01/26 08:47:24;;;;;;;;;;;;;;;19.09;30.80;95759.59;10413331;28;3086;-50
2023/01/26 08:52:24;;;;;;;;;;;;;;;19.13;30.73;95764.06;10418247;28;3065;-53
2023/01/26 08:57:25;;;;;;;;;;;;;;;19.15;30.76;95767.22;10415572;28;2971;-50
2023/01/26 09:02:25;;;;;;;;;;;;;;;19.15;30.92;95761.97;10423247;28;3046;-52
2023/01/26 09:07:25;;;;;;;;;;;;;;;19.18;30.76;95765.91;10417573;28;2999;-48
2023/01/26 09:12:25;;;;;;;;;;;;;;;19.19;30.82;95757.75;10415458;28;3057;-48
2023/01/26 09:17:26;;;;;;;;;;;;;;;19.21;30.77;95760.91;10415296;28;3114;-47
2023/01/26 09:22:26;;;;;;;;;;;;;;;19.22;30.92;95759.09;10410690;28;3038;-46
2023/01/26 09:27:26;;;;;;;;;;;;;;;19.24;30.80;95764.88;10407754;28;2909;-48
2023/01/26 09:32:26;;;;;;;;;;;;;;;19.23;30.93;95768.53;10413530;28;3113;-50
2023/01/26 09:37:27;;;;;;;;;;;;;;;19.25;30.75;95767.22;10418667;28;3002;-49
2023/01/26 09:42:27;;;;;;;;;;;;;;;19.27;30.82;95773.00;10417189;28;3105;-48
2023/01/26 09:47:40;;;;;;;;;;;;;;;19.27;30.91;95778.25;10421632;28;3045;-50
2023/01/26 09:52:54;;;;;;;;;;;;;;;19.26;30.87;95779.31;10415212;28;2970;-46
2023/01/26 09:58:14;;;;;;;;;;;;;;;19.26;30.74;95766.19;10420673;28;2966;-51
2023/01/26 10:03:34;;;;;;;;;;;;;;;19.27;30.65;95759.84;10420030;28;2962;-49
2023/01/26 10:08:34;;;;;;;;;;;;;;;19.26;30.70;95758.28;10423242;28;3008;-50
2023/01/26 10:13:34;;;;;;;;;;;;;;;19.28;30.75;95752.78;10421416;28;2989;-47
2023/01/26 10:18:36;;;;;;;;;;;;;;;19.29;30.62;95759.59;10426752;28;3022;-45
2023/01/26 10:23:36;;;;;;;;;;;;;;;19.30;30.79;95750.66;10428171;28;3028;-45
2023/01/26 10:28:36;;;;;;;;;;;;;;;19.31;30.58;95744.34;10438963;28;2983;-48
2023/01/26 10:33:37;;;;;;;;;;;;;;;19.31;30.62;95742.50;10411020;28;3037;-49
2023/01/26 10:38:40;;;;;;;;;;;;;;;19.33;30.64;95742.25;10419369;28;3013;-47
2023/01/26 10:43:41;;;;;;;;;;;;;;;19.34;30.50;95739.38;10421777;28;2927;-48
2023/01/26 10:48:41;;;;;;;;;;;;;;;19.35;30.47;95745.44;10416348;28;2973;-49
2023/01/26 10:53:41;;;;;;;;;;;;;;;19.34;30.54;95741.22;10403533;28;2981;-50
2023/01/26 10:58:47;;;;;;;;;;;;;;;19.35;30.45;95742.81;10422794;28;3034;-51
2023/01/26 11:04:06;;;;;;;;;;;;;;;19.36;30.39;95724.13;10423259;28;3057;-51
2023/01/26 11:09:17;;;;;;;;;;;;;;;19.36;30.48;95723.34;10422032;28;3390;-50
2023/01/26 11:14:18;;;;;;;;;;;;;;;19.37;30.33;95723.06;10415173;28;3057;-51
2023/01/26 11:19:30;;;;;;;;;;;;;;;19.39;30.21;95720.19;10414143;28;3042;-49
2023/01/26 11:24:35;;;;;;;;;;;;;;;19.36;30.34;95726.78;10419951;28;3022;-51
2023/01/26 11:29:54;;;;;;;;;;;;;;;19.38;30.30;95734.38;10421990;28;3082;-49
2023/01/26 11:35:13;;;;;;;;;;;;;;;19.36;30.56;95724.13;10423204;28;3027;-50
2023/01/26 11:40:13;;;;;;;;;;;;;;;19.35;30.49;95719.91;10415893;28;2950;-49
2023/01/26 11:45:13;;;;;;;;;;;;;;;19.36;30.43;95718.09;10425466;28;3070;-50
2023/01/26 11:50:13;;;;;;;;;;;;;;;19.36;30.40;95723.34;10413694;28;3029;-49
2023/01/26 11:55:46;;;;;;;;;;;;;;;19.35;30.25;95719.91;10417730;28;2988;-52
2023/01/26 12:00:46;;;;;;;;;;;;;;;19.35;30.30;95712.03;10410562;28;3038;-48
2023/01/26 12:05:47;;;;;;;;;;;;;;;19.35;30.20;95709.41;10426415;28;2750;-47
2023/01/26 12:11:20;;;;;;;;;;;;;;;19.35;30.31;95695.50;10400192;28;2769;-48
2023/01/26 12:16:42;;;;;;;;;;;;;;;19.38;30.25;95694.94;10405002;28;2655;-50
2023/01/26 12:21:42;;;;;;;;;;;;;;;19.37;30.55;95694.16;10422853;28;2641;-48
2023/01/26 12:26:44;;;;;;;;;;;;;;;19.43;31.16;95687.06;10405069;28;2757;-45
2023/01/26 12:31:56;;;;;;;;;;;;;;;19.44;31.51;95678.91;10402925;28;2742;-48
2023/01/26 12:36:57;;;;;;;;;;;;;;;19.46;31.52;95678.63;10420662;28;2676;-51
2023/01/26 12:42:16;;;;;;;;;;;;;;;19.49;31.71;95686.75;10410609;28;2665;-48
2023/01/26 12:47:18;;;;;;;;;;;;;;;19.49;31.38;95676.25;10427289;28;2799;-47
2023/01/26 12:52:20;;;;;;;;;;;;;;;19.49;31.64;95676.25;10418190;28;2821;-49
2023/01/26 12:57:22;;;;;;;;;;;;;;;19.48;31.44;95682.56;10413978;28;2719;-47
2023/01/26 13:02:29;;;;;;;;;;;;;;;19.46;31.35;95681.25;10418320;28;2727;-52
2023/01/26 13:07:36;;;;;;;;;;;;;;;19.44;31.33;95688.63;10415699;28;2746;-46
2023/01/26 13:12:46;;;;;;;;;;;;;;;19.44;31.22;95672.84;10410432;28;2840;-52
2023/01/26 13:17:48;;;;;;;;;;;;;;;19.41;31.12;95674.16;10426400;28;2786;-50
2023/01/26 13:22:48;;;;;;;;;;;;;;;19.41;31.16;95668.91;10417243;28;2785;-51
2023/01/26 13:27:58;;;;;;;;;;;;;;;19.40;31.21;95677.06;10414690;28;2877;-50
2023/01/26 13:33:03;;;;;;;;;;;;;;;19.39;31.16;95672.88;10408627;28;2711;-50
2023/01/26 13:38:07;;;;;;;;;;;;;;;19.36;31.03;95671.56;10423044;28;2855;-52
2023/01/26 13:43:28;;;;;;;;;;;;;;;19.37;31.04;95667.88;10421180;28;3147;-51
2023/01/26 13:48:43;;;;;;;;;;;;;;;19.36;31.08;95666.31;10401357;28;2816;-52
2023/01/26 13:53:47;;;;;;;;;;;;;;;19.35;31.17;95669.97;10424149;28;2742;-49
2023/01/26 13:58:47;;;;;;;;;;;;;;;19.35;30.95;95667.34;10409830;28;2795;-49
2023/01/26 14:03:48;;;;;;;;;;;;;;;19.35;31.05;95666.59;10427782;28;2695;-50
2023/01/26 14:08:53;;;;;;;;;;;;;;;19.34;30.88;95665.78;10410932;28;2805;-51
2023/01/26 14:13:57;;;;;;;;;;;;;;;19.35;30.92;95669.22;10429920;28;2741;-52
2023/01/26 14:19:16;;;;;;;;;;;;;;;19.35;30.86;95669.97;10416669;28;2752;-50
2023/01/26 14:24:16;;;;;;;;;;;;;;;19.34;30.72;95673.69;10420006;28;2725;-49
2023/01/26 14:29:18;;;;;;;;;;;;;;;19.34;30.99;95678.94;10418000;28;2744;-49
2023/01/26 14:34:23;;;;;;;;;;;;;;;19.35;30.95;95671.84;10424818;28;2806;-48
2023/01/26 14:39:23;;;;;;;;;;;;;;;19.35;30.64;95669.22;10409823;28;2774;-52
2023/01/26 14:44:23;;;;;;;;;;;;;;;19.36;30.54;95666.31;10421995;28;2900;-53
2023/01/26 14:49:43;;;;;;;;;;;;;;;19.32;30.35;95665.25;10419474;28;2731;-51
2023/01/26 14:54:43;;;;;;;;;;;;;;;19.30;30.22;95669.19;10424123;28;2776;-48
2023/01/26 14:59:45;;;;;;;;;;;;;;;19.26;30.38;95662.91;10410211;28;3080;-50
2023/01/26 15:04:48;;;;;;;;;;;;;;;19.25;30.40;95653.41;10410281;28;2881;-48
2023/01/26 15:09:52;;;;;;;;;;;;;;;19.27;30.30;95654.72;10412224;28;2686;-51
2023/01/26 15:14:58;;;;;;;;;;;;;;;19.27;30.21;95659.19;10427199;28;2795;-50
2023/01/26 15:19:58;;;;;;;;;;;;;;;19.27;30.24;95661.81;10420695;28;2748;-53
2023/01/26 15:25:00;;;;;;;;;;;;;;;19.25;29.99;95659.47;10415947;28;2797;-49
2023/01/26 15:30:00;;;;;;;;;;;;;;;19.24;30.00;95663.16;10419081;28;2705;-49
2023/01/26 15:35:05;;;;;;;;;;;;;;;19.25;29.97;95675.25;10417369;28;2888;-48
2023/01/26 15:40:06;;;;;;;;;;;;;;;19.22;30.22;95680.25;10419869;28;2683;-50
2023/01/26 15:45:15;;;;;;;;;;;;;;;19.23;29.89;95687.84;10419257;28;2711;-50
2023/01/26 15:50:16;;;;;;;;;;;;;;;19.23;29.99;95684.44;10407491;28;2736;-48
2023/01/26 15:55:20;;;;;;;;;;;;;;;19.24;30.09;95689.44;10399647;28;2828;-48
2023/01/26 16:00:21;;;;;;;;;;;;;;;19.25;30.02;95687.59;10415431;28;2793;-50
2023/01/26 16:05:21;;;;;;;;;;;;;;;19.24;30.00;95699.97;10421798;28;2877;-48
2023/01/26 16:10:22;;;;;;;;;;;;;;;19.26;30.12;95687.34;10420229;28;2757;-52
2023/01/26 16:15:25;;;;;;;;;;;;;;;19.27;29.92;95683.66;10410836;28;2785;-49
2023/01/26 16:20:26;;;;;;;;;;;;;;;19.29;30.04;95688.63;10427970;28;2739;-52
2023/01/26 16:25:27;;;;;;;;;;;;;;;19.31;29.77;95676.00;10416814;28;2690;-51
2023/01/26 16:30:27;;;;;;;;;;;;;;;19.30;29.87;95685.75;10412717;28;2706;-53
2023/01/26 16:35:28;;;;;;;;;;;;;;;19.31;29.97;95684.69;10417005;28;2735;-52
2023/01/26 16:40:28;;;;;;;;;;;;;;;19.33;29.83;95687.06;10420901;28;2746;-49
2023/01/26 16:45:28;;;;;;;;;;;;;;;19.36;29.77;95676.84;10422613;28;2651;-50
2023/01/26 16:50:29;;;;;;;;;;;;;;;19.36;29.75;95679.47;10423049;28;2737;-51
2023/01/26 16:55:29;;;;;;;;;;;;;;;19.39;29.66;95684.16;10426158;28;2818;-51
2023/01/26 17:00:29;;;;;;;;;;;;;;;19.38;29.51;95685.22;10414013;28;2762;-48
2023/01/26 17:05:30;;;;;;;;;;;;;;;19.42;29.56;95681.00;10416942;28;2688;-51
2023/01/26 17:10:30;;;;;;;;;;;;;;;19.42;29.57;95691.53;10414997;28;2748;-50
2023/01/26 17:15:30;;;;;;;;;;;;;;;19.41;29.38;95704.94;10416323;28;2797;-48
2023/01/26 17:20:31;;;;;;;;;;;;;;;19.41;29.53;95691.81;10399485;28;2779;-49
2023/01/26 17:25:32;;;;;;;;;;;;;;;19.38;29.75;95695.75;10448294;28;2770;-50
2023/01/26 17:30:33;;;;;;;;;;;;;;;19.40;29.76;95693.63;10450521;28;2775;-51
2023/01/26 17:35:33;;;;;;;;;;;;;;;19.39;29.51;95694.69;10455926;28;2918;-48
2023/01/26 17:40:35;;;;;;;;;;;;;;;19.45;29.48;95696.25;10475922;28;2775;-51
2023/01/26 17:45:36;;;;;;;;;;;;;;;19.50;29.70;95703.31;10466138;28;2726;-52
2023/01/26 17:50:36;;;;;;;;;;;;;;;19.53;29.76;95696.75;10461163;28;2831;-53
2023/01/26 17:55:36;;;;;;;;;;;;;;;19.53;29.95;95686.25;10455815;28;2799;-54
2023/01/26 18:00:37;;;;;;;;;;;;;;;19.56;29.96;95691.75;10458966;28;2792;-51
2023/01/26 18:05:37;;;;;;;;;;;;;;;19.58;30.30;95687.00;10431801;28;2711;-53
2023/01/26 18:10:37;;;;;;;;;;;;;;;19.59;30.06;95691.22;10458838;28;2743;-49
2023/01/26 18:15:37;;;;;;;;;;;;;;;19.55;30.08;95692.00;10457423;28;2767;-52
2023/01/26 18:20:38;;;;;;;;;;;;;;;19.54;29.94;95688.59;10469163;28;2712;-50
2023/01/26 18:25:39;;;;;;;;;;;;;;;19.53;29.82;95696.75;10420287;28;2794;-50
2023/01/26 18:30:39;;;;;;;;;;;;;;;19.50;29.89;95692.81;10425796;28;2754;-50
2023/01/26 18:35:39;;;;;;;;;;;;;;;19.53;29.80;95696.75;10429674;28;2745;-50
2023/01/26 18:40:39;;;;;;;;;;;;;;;19.59;29.66;95693.84;10419740;28;2841;-51
2023/01/26 18:45:40;;;;;;;;;;;;;;;19.57;29.61;95697.78;10431513;28;2839;-54
2023/01/26 18:50:41;;;;;;;;;;;;;;;19.58;29.73;95694.13;10424562;28;2823;-52
2023/01/26 18:55:41;;;;;;;;;;;;;;;19.60;29.54;95692.00;10421775;28;2731;-52
2023/01/26 19:00:41;;;;;;;;;;;;;;;19.64;30.01;95696.44;10417934;28;2707;-52
2023/01/26 19:05:41;;;;;;;;;;;;;;;19.65;30.04;95699.88;10416031;28;2742;-49
2023/01/26 19:10:42;;;;;;;;;;;;;;;19.69;30.13;95690.38;10416420;28;2753;-51
2023/01/26 19:15:46;;;;;;;;;;;;;;;19.70;30.08;95699.88;10441001;28;2807;-53
2023/01/26 19:20:53;;;;;;;;;;;;;;;19.70;30.04;95692.72;10413339;28;2717;-50
2023/01/26 19:25:53;;;;;;;;;;;;;;;19.72;30.20;95695.88;10412027;28;2779;-50
2023/01/26 19:31:00;;;;;;;;;;;;;;;19.74;30.04;95693.78;10422859;28;2728;-52
2023/01/26 19:36:04;;;;;;;;;;;;;;;19.78;29.91;95680.88;10412738;28;2766;-51
2023/01/26 19:41:04;;;;;;;;;;;;;;;19.79;30.10;95674.56;10426542;28;2770;-52
2023/01/26 19:46:06;;;;;;;;;;;;;;;19.81;29.99;95689.03;10407171;28;2928;-52
2023/01/26 19:51:09;;;;;;;;;;;;;;;19.84;29.84;95685.06;10409241;28;2740;-49
2023/01/26 19:56:15;;;;;;;;;;;;;;;19.86;29.85;95690.84;10417013;28;2817;-51
2023/01/26 20:01:15;;;;;;;;;;;;;;;19.86;29.97;95685.59;10417679;28;2707;-48
2023/01/26 20:06:16;;;;;;;;;;;;;;;19.87;29.96;95689.78;10418347;28;2744;-50
2023/01/26 20:11:16;;;;;;;;;;;;;;;19.87;30.10;95693.19;10427693;28;2770;-49
2023/01/26 20:16:16;;;;;;;;;;;;;;;19.90;30.04;95690.03;10429142;28;2776;-46
2023/01/26 20:21:17;;;;;;;;;;;;;;;19.91;30.04;95683.72;10432426;28;2714;-46
2023/01/26 20:26:18;;;;;;;;;;;;;;;19.93;29.80;95688.69;10431423;28;2742;-49
2023/01/26 20:31:19;;;;;;;;;;;;;;;19.93;29.65;95678.16;10433378;28;2839;-49
2023/01/26 20:36:21;;;;;;;;;;;;;;;19.93;29.75;95680.81;10420760;28;2741;-49
2023/01/26 20:41:22;;;;;;;;;;;;;;;19.92;29.92;95676.63;10426757;28;2715;-49
2023/01/26 20:46:23;;;;;;;;;;;;;;;19.92;29.81;95671.34;10419370;28;2742;-50
2023/01/26 20:51:25;;;;;;;;;;;;;;;19.89;29.89;95671.88;10427489;28;2763;-50
2023/01/26 20:56:25;;;;;;;;;;;;;;;19.86;29.68;95669.81;10428015;28;3150;-48
2023/01/26 21:01:25;;;;;;;;;;;;;;;19.83;30.01;95670.34;10404581;28;2692;-47
2023/01/26 21:06:26;;;;;;;;;;;;;;;19.80;29.83;95670.88;10415123;28;2768;-48
2023/01/26 21:11:27;;;;;;;;;;;;;;;19.74;29.88;95672.72;10420291;28;2906;-48
2023/01/26 21:16:28;;;;;;;;;;;;;;;19.69;30.04;95664.88;10428601;28;2806;-49
2023/01/26 21:21:28;;;;;;;;;;;;;;;19.64;30.01;95664.88;10423042;28;2730;-50
2023/01/26 21:26:28;;;;;;;;;;;;;;;19.61;29.99;95662.81;10427250;28;2704;-46
2023/01/26 21:31:29;;;;;;;;;;;;;;;19.56;30.33;95659.44;10414173;28;2736;-49
2023/01/26 21:36:29;;;;;;;;;;;;;;;19.48;30.47;95663.38;10424635;28;2691;-47
2023/01/26 21:46:50;;;;;;;;;;;;;;;19.36;30.49;95653.16;10420622;28;2751;-47
2023/01/26 22:02:28;;;;;;;;;;;;;;;19.19;30.45;95667.63;10425944;28;2826;-48
2023/01/26 22:07:28;;;;;;;;;;;;;;;19.13;30.65;95655.56;10422805;28;2758;-49
2023/01/26 22:12:29;;;;;;;;;;;;;;;19.07;30.66;95662.66;10421006;28;2763;-48
2023/01/26 22:17:29;;;;;;;;;;;;;;;19.02;30.48;95660.03;10421285;28;2756;-47
2023/01/26 22:22:29;;;;;;;;;;;;;;;18.98;30.61;95647.72;10418201;28;2719;-48
2023/01/26 22:27:30;;;;;;;;;;;;;;;18.91;30.65;95650.63;10420026;28;2710;-50
2023/01/26 22:32:30;;;;;;;;;;;;;;;18.85;30.69;95651.69;10424852;28;2819;-47
2023/01/26 22:37:30;;;;;;;;;;;;;;;18.83;30.76;95653.78;10419793;28;2731;-49
2023/01/26 22:42:30;;;;;;;;;;;;;;;18.77;30.71;95656.66;10421323;28;2795;-47
2023/01/26 22:47:31;;;;;;;;;;;;;;;18.72;30.74;95652.22;10437732;28;2693;-46
2023/01/26 22:52:31;;;;;;;;;;;;;;;18.66;30.90;95642.75;10421689;28;2865;-48
2023/01/26 22:57:31;;;;;;;;;;;;;;;18.63;30.70;95635.41;10404630;28;2715;-48
2023/01/26 23:02:31;;;;;;;;;;;;;;;18.59;30.82;95639.59;10421237;28;2716;-49
2023/01/26 23:07:32;;;;;;;;;;;;;;;18.54;30.92;95631.75;10425111;28;2761;-45
2023/01/26 23:12:32;;;;;;;;;;;;;;;18.52;30.93;95641.72;10419075;28;2766;-47
2023/01/26 23:17:32;;;;;;;;;;;;;;;18.48;30.88;95627.53;10414834;28;2777;-48
2023/01/26 23:22:32;;;;;;;;;;;;;;;18.46;30.87;95632.28;10416606;28;2822;-46
2023/01/26 23:27:33;;;;;;;;;;;;;;;18.42;31.02;95629.31;10419576;28;2747;-48
2023/01/26 23:32:33;;;;;;;;;;;;;;;18.38;30.98;95630.13;10426844;28;2784;-47
2023/01/26 23:37:33;;;;;;;;;;;;;;;18.34;30.92;95626.47;10418541;28;2758;-47
2023/01/26 23:42:34;;;;;;;;;;;;;;;18.32;30.90;95613.59;10425472;28;2746;-46
2023/01/26 23:47:34;;;;;;;;;;;;;;;18.30;30.84;95620.16;10418093;28;2923;-47
2023/01/26 23:52:34;;;;;;;;;;;;;;;18.25;30.73;95610.44;10417943;28;2855;-50
2023/01/26 23:57:37;;;;;;;;;;;;;;;18.23;30.84;95609.13;10419144;28;2863;-49
